createdAt,value
2019-04-01T00:01:16.047Z,99.90
2019-04-01T00:03:53.404Z,99.90
2019-04-01T00:06:31.140Z,99.90
2019-04-01T00:09:08.347Z,99.90
2019-04-01T00:11:45.619Z,99.90
2019-04-01T00:14:22.836Z,99.90
2019-04-01T00:17:00.628Z,99.90
2019-04-01T00:19:38.032Z,99.90
2019-04-01T00:22:15.720Z,99.90
2019-04-01T00:24:52.908Z,99.90
2019-04-01T00:27:30.161Z,99.90
2019-04-01T00:30:07.420Z,99.90
2019-04-01T00:32:56.505Z,99.90
2019-04-01T00:35:34.112Z,99.90
2019-04-01T00:38:11.906Z,99.90
2019-04-01T00:40:49.234Z,99.90
2019-04-01T00:43:45.333Z,99.90
2019-04-01T00:46:22.958Z,99.90
2019-04-01T00:49:00.752Z,99.90
2019-04-01T00:51:38.611Z,99.90
2019-04-01T00:54:16.513Z,99.90
2019-04-01T00:56:53.995Z,99.90
2019-04-01T00:59:31.522Z,99.90
2019-04-01T01:02:08.965Z,99.90
2019-04-01T01:04:46.473Z,99.90
2019-04-01T01:07:23.743Z,99.90
2019-04-01T01:10:01.639Z,99.90
2019-04-01T01:12:50.509Z,99.90
2019-04-01T01:15:27.800Z,99.90
2019-04-01T01:18:05.288Z,99.90
2019-04-01T01:20:42.924Z,99.90
2019-04-01T01:23:20.036Z,99.90
2019-04-01T01:25:57.441Z,99.90
2019-04-01T01:28:35.257Z,99.90
2019-04-01T01:31:12.907Z,99.90
2019-04-01T01:33:50.319Z,99.90
2019-04-01T01:36:27.998Z,99.90
2019-04-01T01:39:18.175Z,99.90
2019-04-01T01:41:56.311Z,99.90
2019-04-01T01:44:33.487Z,99.90
2019-04-01T01:47:10.797Z,99.90
2019-04-01T01:49:49.211Z,99.90
2019-04-01T01:52:27.020Z,99.90
2019-04-01T01:55:04.570Z,99.90
2019-04-01T01:57:41.860Z,99.90
2019-04-01T02:00:19.950Z,99.90
2019-04-01T02:02:57.334Z,99.90
2019-04-01T02:05:34.578Z,99.90
2019-04-01T02:08:12.326Z,99.90
2019-04-01T02:10:49.502Z,99.90
2019-04-01T02:13:28.078Z,99.90
2019-04-01T02:16:17.484Z,99.90
2019-04-01T02:18:54.696Z,99.90
2019-04-01T02:21:32.009Z,99.90
2019-04-01T02:24:09.236Z,99.90
2019-04-01T02:26:46.643Z,99.90
2019-04-01T02:29:23.898Z,99.90
2019-04-01T02:32:02.251Z,99.90
2019-04-01T02:34:39.556Z,99.90
2019-04-01T02:37:16.896Z,99.90
2019-04-01T02:39:55.347Z,99.90
2019-04-01T02:42:33.185Z,99.90
2019-04-01T02:45:10.760Z,99.90
2019-04-01T02:47:48.176Z,99.90
2019-04-01T02:50:26.434Z,99.90
2019-04-01T02:53:03.777Z,99.90
2019-04-01T02:55:42.590Z,99.90
2019-04-01T02:58:19.955Z,99.90
2019-04-01T03:01:09.201Z,99.90
2019-04-01T03:03:46.996Z,99.90
2019-04-01T03:06:24.314Z,99.90
2019-04-01T03:09:01.513Z,99.90
2019-04-01T03:11:40.070Z,99.90
2019-04-01T03:14:18.156Z,99.90
2019-04-01T03:16:55.583Z,99.90
2019-04-01T03:19:32.783Z,99.90
2019-04-01T03:22:10.982Z,99.90
2019-04-01T03:24:48.272Z,99.90
2019-04-01T03:27:25.799Z,99.90
2019-04-01T03:30:03.402Z,99.90
2019-04-01T03:32:45.351Z,99.90
2019-04-01T03:35:20.106Z,99.90
2019-04-01T03:37:57.258Z,99.90
2019-04-01T03:40:34.799Z,99.90
2019-04-01T03:43:12.346Z,99.90
2019-04-01T03:45:49.732Z,99.90
2019-04-01T03:48:26.902Z,99.90
2019-04-01T03:51:04.211Z,99.90
2019-04-01T03:53:41.481Z,99.90
2019-04-01T03:56:18.657Z,99.90
2019-04-01T03:58:56.068Z,99.90
2019-04-01T04:01:33.389Z,99.90
2019-04-01T04:04:10.765Z,99.90
2019-04-01T04:06:48.268Z,99.90
2019-04-01T04:09:25.577Z,99.90
2019-04-01T04:12:03.017Z,99.90
2019-04-01T04:14:40.626Z,99.90
2019-04-01T04:17:17.926Z,99.90
2019-04-01T04:19:55.823Z,99.90
2019-04-01T04:22:34.322Z,99.90
2019-04-01T04:25:11.774Z,99.90
2019-04-01T04:27:49.046Z,99.90
2019-04-01T04:30:26.479Z,99.90
2019-04-01T04:33:04.190Z,99.90
2019-04-01T04:35:42.959Z,99.90
2019-04-01T04:38:20.154Z,99.90
2019-04-01T04:40:57.627Z,99.90
2019-04-01T04:43:35.003Z,99.90
2019-04-01T04:46:12.315Z,99.90
2019-04-01T04:48:50.167Z,99.90
2019-04-01T04:51:27.987Z,99.90
2019-04-01T04:54:05.305Z,99.90
2019-04-01T04:56:43.089Z,99.90
2019-04-01T04:59:20.345Z,99.90
2019-04-01T05:01:57.571Z,99.90
2019-04-01T05:04:35.056Z,99.90
2019-04-01T05:07:12.399Z,99.90
2019-04-01T05:09:49.667Z,99.90
2019-04-01T05:12:27.061Z,99.90
2019-04-01T05:15:05.004Z,99.90
2019-04-01T05:17:42.334Z,99.90
2019-04-01T05:20:19.990Z,99.40
2019-04-01T05:22:57.900Z,98.20
2019-04-01T05:25:36.993Z,97.80
2019-04-01T05:28:17.047Z,98.00
2019-04-01T05:30:56.107Z,98.20
2019-04-01T05:33:34.890Z,98.10
2019-04-01T05:36:14.069Z,98.20
2019-04-01T05:38:52.117Z,97.70
2019-04-01T05:41:29.272Z,97.00
2019-04-01T05:44:06.592Z,96.20
2019-04-01T05:46:43.948Z,95.50
2019-04-01T05:49:21.388Z,94.30
2019-04-01T05:51:59.054Z,94.60
2019-04-01T05:54:37.410Z,95.90
2019-04-01T05:57:15.860Z,96.40
2019-04-01T05:59:54.002Z,97.20
2019-04-01T06:02:31.564Z,96.70
2019-04-01T06:05:09.092Z,96.10
2019-04-01T06:07:46.669Z,95.30
2019-04-01T06:10:24.449Z,94.90
2019-04-01T06:13:01.671Z,93.50
2019-04-01T06:15:39.592Z,92.10
2019-04-01T06:18:17.016Z,91.10
2019-04-01T06:20:54.394Z,90.10
2019-04-01T06:23:31.628Z,88.70
2019-04-01T06:26:09.691Z,86.80
2019-04-01T06:28:47.591Z,83.80
2019-04-01T06:31:25.682Z,81.80
2019-04-01T06:34:03.748Z,86.40
2019-04-01T06:36:42.107Z,90.90
2019-04-01T06:39:19.599Z,91.10
2019-04-01T06:41:57.567Z,91.10
2019-04-01T06:44:35.221Z,90.60
2019-04-01T06:47:12.532Z,90.00
2019-04-01T06:49:49.737Z,88.50
2019-04-01T06:52:27.159Z,86.50
2019-04-01T06:55:04.698Z,84.70
2019-04-01T06:57:42.020Z,83.30
2019-04-01T07:00:19.360Z,80.10
2019-04-01T07:02:57.167Z,78.30
2019-04-01T07:05:34.491Z,77.30
2019-04-01T07:08:12.065Z,74.80
2019-04-01T07:10:50.055Z,74.20
2019-04-01T07:13:27.567Z,71.70
2019-04-01T07:16:15.309Z,71.40
2019-04-01T07:18:44.584Z,70.30
2019-04-01T07:21:21.987Z,68.10
2019-04-01T07:24:10.633Z,66.70
2019-04-01T07:26:48.242Z,62.10
2019-04-01T07:29:25.490Z,61.90
2019-04-01T07:32:03.200Z,57.40
2019-04-01T07:34:40.642Z,56.80
2019-04-01T07:37:18.040Z,56.60
2019-04-01T07:39:55.667Z,56.00
2019-04-01T07:42:32.842Z,53.50
2019-04-01T07:45:10.243Z,50.10
2019-04-01T07:47:51.471Z,50.00
2019-04-01T07:50:27.279Z,51.30
2019-04-01T07:53:04.635Z,50.80
2019-04-01T07:55:41.941Z,48.80
2019-04-01T07:58:19.257Z,50.00
2019-04-01T08:00:56.859Z,49.70
2019-04-01T08:03:34.327Z,49.30
2019-04-01T08:06:11.879Z,50.40
2019-04-01T08:08:52.288Z,48.80
2019-04-01T08:11:29.990Z,47.80
2019-04-01T08:14:07.207Z,47.80
2019-04-01T08:16:44.602Z,45.00
2019-04-01T08:19:22.372Z,41.60
2019-04-01T08:21:59.848Z,38.40
2019-04-01T08:24:37.566Z,39.00
2019-04-01T08:27:15.364Z,35.30
2019-04-01T08:29:53.068Z,36.30
2019-04-01T08:32:30.271Z,35.00
2019-04-01T08:35:08.681Z,34.50
2019-04-01T08:37:46.070Z,33.40
2019-04-01T08:40:35.537Z,29.90
2019-04-01T08:43:12.826Z,31.10
2019-04-01T08:45:50.182Z,33.00
2019-04-01T08:48:27.799Z,33.20
2019-04-01T08:51:05.449Z,33.30
2019-04-01T08:53:43.224Z,34.00
2019-04-01T08:56:21.705Z,33.90
2019-04-01T08:58:59.028Z,33.20
2019-04-01T09:01:36.607Z,33.90
2019-04-01T09:04:14.378Z,33.40
2019-04-01T09:06:51.727Z,33.10
2019-04-01T09:09:30.696Z,33.30
2019-04-01T09:12:08.130Z,33.50
2019-04-01T09:14:45.938Z,33.30
2019-04-01T09:17:23.273Z,33.90
2019-04-01T09:20:01.371Z,33.80
2019-04-01T09:22:38.826Z,34.50
2019-04-01T09:25:16.120Z,35.30
2019-04-01T09:27:53.589Z,36.30
2019-04-01T09:30:31.088Z,34.90
2019-04-01T09:33:08.297Z,37.30
2019-04-01T09:35:45.764Z,37.40
2019-04-01T09:38:23.344Z,35.80
2019-04-01T09:41:00.799Z,34.60
2019-04-01T09:43:38.100Z,32.90
2019-04-01T09:46:16.639Z,33.20
2019-04-01T09:48:53.946Z,34.20
2019-04-01T09:51:31.435Z,38.20
2019-04-01T09:54:08.860Z,42.50
2019-04-01T09:56:46.586Z,46.00
2019-04-01T09:59:23.962Z,43.80
2019-04-01T10:02:01.231Z,39.60
2019-04-01T10:04:38.626Z,39.00
2019-04-01T10:07:16.525Z,37.40
2019-04-01T10:09:54.016Z,31.80
2019-04-01T10:12:31.879Z,32.60
2019-04-01T10:15:10.232Z,34.00
2019-04-01T10:17:47.644Z,31.10
2019-04-01T10:20:24.890Z,28.40
2019-04-01T10:23:03.010Z,29.00
2019-04-01T10:25:52.440Z,26.20
2019-04-01T10:28:32.370Z,25.90
2019-04-01T10:31:10.344Z,27.90
2019-04-01T10:33:47.787Z,26.60
2019-04-01T10:36:25.302Z,28.80
2019-04-01T10:39:03.263Z,28.00
2019-04-01T10:41:41.523Z,28.20
2019-04-01T10:44:18.800Z,27.50
2019-04-01T10:46:56.998Z,27.40
2019-04-01T10:49:34.759Z,29.10
2019-04-01T10:52:12.146Z,30.00
2019-04-01T10:54:49.693Z,28.90
2019-04-01T10:57:27.568Z,29.60
2019-04-01T11:00:06.173Z,29.50
2019-04-01T11:02:43.477Z,31.20
2019-04-01T11:05:20.908Z,33.30
2019-04-01T11:07:58.426Z,33.80
2019-04-01T11:10:35.729Z,34.50
2019-04-01T11:13:13.521Z,33.30
2019-04-01T11:15:50.671Z,34.90
2019-04-01T11:18:28.331Z,35.20
2019-04-01T11:21:06.237Z,35.10
2019-04-01T11:23:44.067Z,33.80
2019-04-01T11:26:21.713Z,34.00
2019-04-01T11:28:59.061Z,33.50
2019-04-01T11:31:36.489Z,33.90
2019-04-01T11:34:13.798Z,33.10
2019-04-01T11:36:51.517Z,31.80
2019-04-01T11:39:29.530Z,31.60
2019-04-01T11:42:06.791Z,32.10
2019-04-01T11:44:44.198Z,37.40
2019-04-01T11:47:22.508Z,35.00
2019-04-01T11:49:59.892Z,36.60
2019-04-01T11:52:38.221Z,36.90
2019-04-01T11:55:17.263Z,35.40
2019-04-01T11:57:55.119Z,33.00
2019-04-01T12:00:32.434Z,31.70
2019-04-01T12:03:11.007Z,33.10
2019-04-01T12:05:48.257Z,34.50
2019-04-01T12:08:26.241Z,33.90
2019-04-01T12:11:04.052Z,34.40
2019-04-01T12:13:42.473Z,34.70
2019-04-01T12:16:19.923Z,37.30
2019-04-01T12:18:57.784Z,36.10
2019-04-01T12:21:35.344Z,33.20
2019-04-01T12:24:13.293Z,34.20
2019-04-01T12:26:50.669Z,36.50
2019-04-01T12:29:27.955Z,37.60
2019-04-01T12:32:05.455Z,37.30
2019-04-01T12:34:43.539Z,36.30
2019-04-01T12:37:21.285Z,38.30
2019-04-01T12:39:58.707Z,36.00
2019-04-01T12:42:37.180Z,37.60
2019-04-01T12:45:14.738Z,37.10
2019-04-01T12:47:52.013Z,35.30
2019-04-01T12:50:29.276Z,37.70
2019-04-01T12:53:06.609Z,38.90
2019-04-01T12:55:45.100Z,39.20
2019-04-01T12:58:25.131Z,39.00
2019-04-01T13:01:02.407Z,37.60
2019-04-01T13:03:39.982Z,39.00
2019-04-01T13:06:17.434Z,39.90
2019-04-01T13:08:54.892Z,38.20
2019-04-01T13:11:32.158Z,38.20
2019-04-01T13:14:09.301Z,37.80
2019-04-01T13:16:46.972Z,37.50
2019-04-01T13:19:24.241Z,38.40
2019-04-01T13:22:01.639Z,38.90
2019-04-01T13:24:39.022Z,38.10
2019-04-01T13:27:16.514Z,38.80
2019-04-01T13:29:53.952Z,39.00
2019-04-01T13:32:31.132Z,38.70
2019-04-01T13:35:11.720Z,39.90
2019-04-01T13:37:49.020Z,40.20
2019-04-01T13:40:26.390Z,41.40
2019-04-01T13:43:05.461Z,40.30
2019-04-01T13:45:47.043Z,41.00
2019-04-01T13:48:24.475Z,42.00
2019-04-01T13:51:01.895Z,41.80
2019-04-01T13:53:39.352Z,42.00
2019-04-01T13:56:17.077Z,43.10
2019-04-01T13:58:54.533Z,42.90
2019-04-01T14:01:32.817Z,43.10
2019-04-01T14:04:10.262Z,42.70
2019-04-01T14:06:47.769Z,42.00
2019-04-01T14:09:25.599Z,42.00
2019-04-01T14:12:03.401Z,42.50
2019-04-01T14:14:41.499Z,43.10
2019-04-01T14:17:18.767Z,43.90
2019-04-01T14:19:57.135Z,44.70
2019-04-01T14:22:34.501Z,45.60
2019-04-01T14:25:11.803Z,45.60
2019-04-01T14:27:49.635Z,46.50
2019-04-01T14:30:27.024Z,46.70
2019-04-01T14:33:04.322Z,46.10
2019-04-01T14:35:45.019Z,46.50
2019-04-01T14:38:21.692Z,48.50
2019-04-01T14:40:59.468Z,48.20
2019-04-01T14:43:37.054Z,48.30
2019-04-01T14:46:14.446Z,49.10
2019-04-01T14:48:52.334Z,47.60
2019-04-01T14:51:29.751Z,47.30
2019-04-01T14:54:07.160Z,46.40
2019-04-01T14:56:45.080Z,46.60
2019-04-01T14:59:22.264Z,46.00
2019-04-01T15:02:01.899Z,46.30
2019-04-01T15:04:38.859Z,44.40
2019-04-01T15:07:18.379Z,43.40
2019-04-01T15:09:55.458Z,44.20
2019-04-01T15:12:32.909Z,44.00
2019-04-01T15:15:11.173Z,43.10
2019-04-01T15:17:48.568Z,43.60
2019-04-01T15:20:26.397Z,44.00
2019-04-01T15:23:04.721Z,44.80
2019-04-01T15:25:42.302Z,45.00
2019-04-01T15:28:19.623Z,45.30
2019-04-01T15:30:57.034Z,47.10
2019-04-01T15:33:34.497Z,48.50
2019-04-01T15:36:11.945Z,48.80
2019-04-01T15:38:50.909Z,48.10
2019-04-01T15:41:28.683Z,48.50
2019-04-01T15:44:06.059Z,47.80
2019-04-01T15:46:45.219Z,47.90
2019-04-01T15:49:22.979Z,48.90
2019-04-01T15:52:12.681Z,46.80
2019-04-01T15:54:50.005Z,49.00
2019-04-01T15:57:28.036Z,50.10
2019-04-01T16:00:06.212Z,49.70
2019-04-01T16:02:43.528Z,49.70
2019-04-01T16:05:21.265Z,50.40
2019-04-01T16:08:00.525Z,50.50
2019-04-01T16:10:39.183Z,51.20
2019-04-01T16:13:17.018Z,51.50
2019-04-01T16:15:56.741Z,51.30
2019-04-01T16:18:35.781Z,52.40
2019-04-01T16:21:13.700Z,53.00
2019-04-01T16:23:51.602Z,50.80
2019-04-01T16:26:29.307Z,50.80
2019-04-01T16:29:06.796Z,51.10
2019-04-01T16:31:44.336Z,52.80
2019-04-01T16:34:22.087Z,53.20
2019-04-01T16:36:59.452Z,53.20
2019-04-01T16:39:36.997Z,53.20
2019-04-01T16:42:14.900Z,54.40
2019-04-01T16:44:54.111Z,56.00
2019-04-01T16:47:31.724Z,55.40
2019-04-01T16:50:10.618Z,54.90
2019-04-01T16:52:48.339Z,55.70
2019-04-01T16:55:25.967Z,57.40
2019-04-01T16:58:03.491Z,59.40
2019-04-01T17:00:40.953Z,61.10
2019-04-01T17:03:20.232Z,62.20
2019-04-01T17:06:00.004Z,64.70
2019-04-01T17:08:38.297Z,67.50
2019-04-01T17:11:16.497Z,69.80
2019-04-01T17:13:55.530Z,73.20
2019-04-01T17:16:33.504Z,75.70
2019-04-01T17:19:11.003Z,79.80
2019-04-01T17:21:48.474Z,82.90
2019-04-01T17:24:26.030Z,85.50
2019-04-01T17:27:06.775Z,88.20
2019-04-01T17:29:46.373Z,90.70
2019-04-01T17:32:23.606Z,91.80
2019-04-01T17:35:01.053Z,92.90
2019-04-01T17:37:39.415Z,93.60
2019-04-01T17:40:17.287Z,94.30
2019-04-01T17:42:54.888Z,95.30
2019-04-01T17:45:38.031Z,95.80
2019-04-01T17:48:15.305Z,96.20
2019-04-01T17:50:53.274Z,96.30
2019-04-01T17:53:30.465Z,97.00
2019-04-01T17:56:08.386Z,97.20
2019-04-01T17:58:45.834Z,97.50
2019-04-01T18:01:23.169Z,97.70
2019-04-01T18:04:02.293Z,97.70
2019-04-01T18:06:40.229Z,97.80
2019-04-01T18:09:17.804Z,97.90
2019-04-01T18:11:55.813Z,98.00
2019-04-01T18:14:36.458Z,97.90
2019-04-01T18:17:14.244Z,98.30
2019-04-01T18:19:51.595Z,98.30
2019-04-01T18:22:29.879Z,98.50
2019-04-01T18:25:07.944Z,98.60
2019-04-01T18:27:45.235Z,98.80
2019-04-01T18:30:23.173Z,98.90
2019-04-01T18:33:00.372Z,98.90
2019-04-01T18:35:37.614Z,99.10
2019-04-01T18:38:14.873Z,99.20
2019-04-01T18:40:52.180Z,99.40
2019-04-01T18:43:29.740Z,99.80
2019-04-01T18:46:07.288Z,99.90
2019-04-01T18:48:45.087Z,99.90
2019-04-01T18:51:22.579Z,99.90
2019-04-01T18:54:01.040Z,99.90
2019-04-01T18:56:38.468Z,99.90
2019-04-01T18:59:15.825Z,99.90
2019-04-01T19:01:53.707Z,99.90
2019-04-01T19:04:37.631Z,99.90
2019-04-01T19:07:15.096Z,99.90
2019-04-01T19:10:05.588Z,99.90
2019-04-01T19:12:33.061Z,99.90
2019-04-01T19:15:11.167Z,99.90
2019-04-01T19:17:48.888Z,99.90
2019-04-01T19:20:26.107Z,99.90
2019-04-01T19:23:03.397Z,99.90
2019-04-01T19:25:40.811Z,99.90
2019-04-01T19:28:18.470Z,99.80
2019-04-01T19:30:56.350Z,99.70
2019-04-01T19:33:33.895Z,99.70
2019-04-01T19:36:11.743Z,99.90
2019-04-01T19:38:49.488Z,99.70
2019-04-01T19:41:26.696Z,99.70
2019-04-01T19:44:05.108Z,99.50
2019-04-01T19:46:42.381Z,99.70
2019-04-01T19:49:20.250Z,99.60
2019-04-01T19:51:57.680Z,99.50
2019-04-01T19:54:36.483Z,99.40
2019-04-01T19:57:14.277Z,99.40
2019-04-01T19:59:51.508Z,99.20
2019-04-01T20:02:28.729Z,99.10
2019-04-01T20:05:06.289Z,99.10
2019-04-01T20:07:44.294Z,99.20
2019-04-01T20:10:21.788Z,99.30
2019-04-01T20:12:59.567Z,99.50
2019-04-01T20:15:36.886Z,99.60
2019-04-01T20:18:14.218Z,99.80
2019-04-01T20:20:51.860Z,99.90
2019-04-01T20:23:29.468Z,99.90
2019-04-01T20:26:06.644Z,99.90
2019-04-01T20:28:44.385Z,99.90
2019-04-01T20:31:21.523Z,99.90
2019-04-01T20:33:59.602Z,99.90
2019-04-01T20:36:36.899Z,99.90
2019-04-01T20:39:14.587Z,99.90
2019-04-01T20:41:51.905Z,99.90
2019-04-01T20:44:29.155Z,99.90
2019-04-01T20:47:07.124Z,99.90
2019-04-01T20:49:45.189Z,99.90
2019-04-01T20:52:22.464Z,99.90
2019-04-01T20:54:59.761Z,99.90
2019-04-01T20:57:37.053Z,99.70
2019-04-01T21:00:14.586Z,99.70
2019-04-01T21:02:52.089Z,99.60
2019-04-01T21:05:29.270Z,99.70
2019-04-01T21:08:06.377Z,99.00
2019-04-01T21:10:43.733Z,99.10
2019-04-01T21:13:21.027Z,98.20
2019-04-01T21:15:59.206Z,98.30
2019-04-01T21:18:36.923Z,98.60
2019-04-01T21:21:16.918Z,98.30
2019-04-01T21:23:53.386Z,98.60
2019-04-01T21:26:30.878Z,99.00
2019-04-01T21:29:08.217Z,99.10
2019-04-01T21:31:45.461Z,99.60
2019-04-01T21:34:22.644Z,99.90
2019-04-01T21:36:59.981Z,99.90
2019-04-01T21:39:53.190Z,99.90
2019-04-01T21:42:30.398Z,99.90
2019-04-01T21:45:08.754Z,99.90
2019-04-01T21:47:45.987Z,99.80
2019-04-01T21:50:23.082Z,99.90
2019-04-01T21:53:02.006Z,99.60
2019-04-01T21:55:39.624Z,99.60
2019-04-01T21:58:17.096Z,99.30
2019-04-01T22:00:56.804Z,99.10
2019-04-01T22:03:36.074Z,98.80
2019-04-01T22:06:14.087Z,98.80
2019-04-01T22:08:51.811Z,98.60
2019-04-01T22:11:41.264Z,98.40
2019-04-01T22:14:18.794Z,97.90
2019-04-01T22:16:56.918Z,98.10
2019-04-01T22:19:34.654Z,98.10
2019-04-01T22:22:12.254Z,98.20
2019-04-01T22:24:50.202Z,98.50
2019-04-01T22:27:27.937Z,98.50
2019-04-01T22:30:07.547Z,98.50
2019-04-01T22:32:57.027Z,98.40
2019-04-01T22:35:38.957Z,98.30
2019-04-01T22:38:24.654Z,98.20
2019-04-01T22:40:53.379Z,98.10
2019-04-01T22:43:43.252Z,97.80
2019-04-01T22:46:20.849Z,98.20
2019-04-01T22:48:58.628Z,97.30
2019-04-01T22:51:37.140Z,97.40
2019-04-01T22:54:15.319Z,97.30
2019-04-01T22:56:53.087Z,97.30
2019-04-01T22:59:30.691Z,97.40
2019-04-01T23:02:08.668Z,97.70
2019-04-01T23:04:46.450Z,97.80
2019-04-01T23:07:23.972Z,97.90
2019-04-01T23:10:03.281Z,97.90
2019-04-01T23:12:40.971Z,98.30
2019-04-01T23:15:18.855Z,98.10
2019-04-01T23:17:56.334Z,98.20
2019-04-01T23:20:34.373Z,98.30
2019-04-01T23:23:12.199Z,98.50
2019-04-01T23:25:50.410Z,98.80
2019-04-01T23:28:28.139Z,98.60
2019-04-01T23:31:05.937Z,98.70
2019-04-01T23:33:44.997Z,98.90
2019-04-01T23:36:23.036Z,98.90
2019-04-01T23:39:01.062Z,99.10
2019-04-01T23:41:40.644Z,99.10
2019-04-01T23:44:18.792Z,99.10
2019-04-01T23:46:56.331Z,99.20
2019-04-01T23:49:34.378Z,99.10
2019-04-01T23:52:11.996Z,99.30
2019-04-01T23:54:50.182Z,99.40
2019-04-01T23:57:39.881Z,99.40
